createdAt,value
2022-11-21T00:02:13.492Z,6.36
2022-11-21T00:04:45.135Z,6.36
2022-11-21T00:07:19.468Z,6.33
2022-11-21T00:09:48.247Z,6.33
2022-11-21T00:12:17.348Z,6.30
2022-11-21T00:14:49.513Z,6.30
2022-11-21T00:17:18.313Z,6.28
2022-11-21T00:19:47.606Z,6.25
2022-11-21T00:22:18.336Z,6.22
2022-11-21T00:24:54.344Z,6.20
2022-11-21T00:27:25.315Z,6.25
2022-11-21T00:29:57.574Z,6.35
2022-11-21T00:32:29.922Z,6.40
2022-11-21T00:34:58.180Z,6.37
2022-11-21T00:37:30.598Z,6.44
2022-11-21T00:39:59.900Z,6.45
2022-11-21T00:42:28.280Z,6.42
2022-11-21T00:45:00.520Z,6.42
2022-11-21T00:47:34.593Z,6.49
2022-11-21T00:50:02.802Z,6.53
2022-11-21T00:52:31.883Z,6.52
2022-11-21T00:55:13.071Z,6.48
2022-11-21T00:57:41.283Z,6.46
2022-11-21T01:00:12.527Z,6.50
2022-11-21T01:02:40.734Z,6.51
2022-11-21T01:05:12.009Z,6.55
2022-11-21T01:07:45.991Z,6.54
2022-11-21T01:10:20.359Z,6.57
2022-11-21T01:12:51.318Z,6.63
2022-11-21T01:15:21.970Z,6.67
2022-11-21T01:17:51.548Z,6.64
2022-11-21T01:20:22.062Z,6.65
2022-11-21T01:22:53.150Z,6.67
2022-11-21T01:25:24.064Z,6.65
2022-11-21T01:27:57.604Z,6.69
2022-11-21T01:30:31.116Z,6.68
2022-11-21T01:33:03.957Z,6.69
2022-11-21T01:35:32.220Z,6.68
2022-11-21T01:38:03.037Z,6.66
2022-11-21T01:40:36.119Z,6.60
2022-11-21T01:43:13.841Z,6.58
2022-11-21T01:46:06.158Z,6.60
2022-11-21T01:48:44.556Z,6.55
2022-11-21T01:51:24.004Z,6.54
2022-11-21T01:53:59.415Z,6.53
2022-11-21T01:56:37.744Z,6.56
2022-11-21T01:59:08.074Z,6.57
2022-11-21T02:01:47.305Z,6.56
2022-11-21T02:04:15.948Z,6.58
2022-11-21T02:06:52.579Z,6.57
2022-11-21T02:09:23.006Z,6.56
2022-11-21T02:11:57.968Z,6.52
2022-11-21T02:14:32.575Z,6.57
2022-11-21T02:17:15.784Z,6.56
2022-11-21T02:19:49.542Z,6.55
2022-11-21T02:22:26.593Z,6.55
2022-11-21T02:25:07.308Z,6.53
2022-11-21T02:27:36.768Z,6.48
2022-11-21T02:30:09.111Z,6.49
2022-11-21T02:32:47.972Z,6.46
2022-11-21T02:35:25.088Z,6.48
2022-11-21T02:37:58.498Z,6.43
2022-11-21T02:40:36.108Z,6.36
2022-11-21T02:43:13.201Z,6.29
2022-11-21T02:45:49.740Z,6.25
2022-11-21T02:48:22.493Z,6.20
2022-11-21T02:50:50.665Z,6.12
2022-11-21T02:53:25.238Z,6.20
2022-11-21T02:55:58.159Z,6.24
2022-11-21T02:58:29.727Z,6.31
2022-11-21T03:00:57.993Z,6.30
2022-11-21T03:03:29.889Z,6.31
2022-11-21T03:05:58.306Z,6.28
2022-11-21T03:08:27.860Z,6.25
2022-11-21T03:10:57.435Z,6.24
2022-11-21T03:13:26.245Z,6.22
2022-11-21T03:15:58.306Z,6.22
2022-11-21T03:18:26.587Z,6.17
2022-11-21T03:20:58.329Z,6.13
2022-11-21T03:23:30.917Z,6.10
2022-11-21T03:26:01.758Z,6.09
2022-11-21T03:28:35.117Z,6.06
2022-11-21T03:31:05.563Z,5.98
2022-11-21T03:33:33.763Z,5.90
2022-11-21T03:36:02.417Z,5.80
2022-11-21T03:38:32.793Z,5.77
2022-11-21T03:41:26.773Z,5.71
2022-11-21T03:43:55.080Z,5.62
2022-11-21T03:46:28.773Z,5.54
2022-11-21T03:48:57.299Z,5.48
2022-11-21T03:51:27.339Z,5.49
2022-11-21T03:53:58.996Z,5.49
2022-11-21T03:56:31.067Z,5.51
2022-11-21T03:59:00.135Z,5.56
2022-11-21T04:01:32.389Z,5.61
2022-11-21T04:04:05.605Z,5.66
2022-11-21T04:06:35.997Z,5.67
2022-11-21T04:09:08.277Z,5.63
2022-11-21T04:11:39.001Z,5.63
2022-11-21T04:14:10.259Z,5.63
2022-11-21T04:16:46.683Z,5.64
2022-11-21T04:19:23.055Z,5.67
2022-11-21T04:21:52.881Z,5.68
2022-11-21T04:24:39.280Z,5.70
2022-11-21T04:27:08.845Z,5.72
2022-11-21T04:29:42.939Z,5.75
2022-11-21T04:32:18.589Z,5.75
2022-11-21T04:34:46.806Z,5.70
2022-11-21T04:37:15.355Z,5.63
2022-11-21T04:39:47.228Z,5.60
2022-11-21T04:42:18.751Z,5.54
2022-11-21T04:44:56.783Z,5.45
2022-11-21T04:47:37.749Z,5.42
2022-11-21T04:50:14.551Z,5.39
2022-11-21T04:52:53.508Z,5.41
2022-11-21T04:55:22.722Z,5.40
2022-11-21T04:57:53.215Z,5.39
2022-11-21T05:00:24.663Z,5.28
2022-11-21T05:02:53.319Z,5.26
2022-11-21T05:05:21.580Z,5.16
2022-11-21T05:08:01.209Z,5.09
2022-11-21T05:10:52.314Z,5.07
2022-11-21T05:13:23.727Z,4.96
2022-11-21T05:15:59.081Z,4.87
2022-11-21T05:18:31.705Z,4.81
2022-11-21T05:21:12.987Z,4.81
2022-11-21T05:23:47.051Z,4.72
2022-11-21T05:26:34.971Z,4.74
2022-11-21T05:29:07.271Z,4.67
2022-11-21T05:31:35.582Z,4.62
2022-11-21T05:34:03.732Z,4.54
2022-11-21T05:36:36.755Z,4.50
2022-11-21T05:39:11.974Z,4.49
2022-11-21T05:41:44.063Z,4.42
2022-11-21T05:44:15.707Z,4.39
2022-11-21T05:46:49.099Z,4.30
2022-11-21T05:49:18.340Z,4.26
2022-11-21T05:51:46.564Z,4.20
2022-11-21T05:54:16.430Z,4.20
2022-11-21T05:56:48.132Z,4.17
2022-11-21T05:59:18.937Z,4.28
2022-11-21T06:02:09.233Z,4.23
2022-11-21T06:04:40.902Z,4.32
2022-11-21T06:07:15.524Z,4.35
2022-11-21T06:09:43.790Z,4.33
2022-11-21T06:12:19.286Z,4.30
2022-11-21T06:14:55.540Z,4.29
2022-11-21T06:17:26.368Z,4.26
2022-11-21T06:19:54.761Z,4.23
2022-11-21T06:22:23.037Z,4.16
2022-11-21T06:24:53.986Z,4.15
2022-11-21T06:27:27.886Z,4.13
2022-11-21T06:30:00.293Z,4.09
2022-11-21T06:32:28.614Z,4.02
2022-11-21T06:35:03.708Z,4.05
2022-11-21T06:37:33.290Z,4.02
2022-11-21T06:40:07.733Z,3.99
2022-11-21T06:42:39.261Z,3.95
2022-11-21T06:45:14.319Z,3.88
2022-11-21T06:47:49.267Z,3.85
2022-11-21T06:50:18.449Z,3.85
2022-11-21T06:52:52.435Z,3.85
2022-11-21T06:55:29.297Z,3.78
2022-11-21T06:57:59.679Z,3.73
2022-11-21T07:00:29.211Z,3.63
2022-11-21T07:03:03.910Z,3.60
2022-11-21T07:05:32.395Z,3.58
2022-11-21T07:08:01.696Z,3.54
2022-11-21T07:10:31.182Z,3.54
2022-11-21T07:13:16.533Z,3.52
2022-11-21T07:15:47.410Z,3.47
2022-11-21T07:18:16.124Z,3.47
2022-11-21T07:20:46.650Z,3.52
2022-11-21T07:23:15.559Z,3.57
2022-11-21T07:25:48.093Z,3.62
2022-11-21T07:28:22.164Z,3.62
2022-11-21T07:30:51.776Z,3.67
2022-11-21T07:33:22.792Z,3.67
2022-11-21T07:35:51.203Z,3.71
2022-11-21T07:38:19.479Z,3.71
2022-11-21T07:40:47.681Z,3.78
2022-11-21T07:43:16.060Z,3.84
2022-11-21T07:45:44.224Z,3.83
2022-11-21T07:48:17.211Z,3.90
2022-11-21T07:50:47.460Z,3.94
2022-11-21T07:53:18.513Z,4.00
2022-11-21T07:55:47.674Z,4.03
2022-11-21T07:58:18.497Z,4.02
2022-11-21T08:00:49.293Z,4.05
2022-11-21T08:03:19.461Z,4.06
2022-11-21T08:05:51.542Z,4.06
2022-11-21T08:08:19.847Z,4.10
2022-11-21T08:10:48.056Z,4.12
2022-11-21T08:13:19.205Z,4.17
2022-11-21T08:15:50.665Z,4.19
2022-11-21T08:18:22.547Z,4.21
2022-11-21T08:20:50.876Z,4.23
2022-11-21T08:23:19.338Z,4.34
2022-11-21T08:25:47.729Z,4.36
2022-11-21T08:28:22.337Z,4.36
2022-11-21T08:30:52.734Z,4.37
2022-11-21T08:33:27.217Z,4.41
2022-11-21T08:35:55.444Z,4.50
2022-11-21T08:38:23.736Z,4.54
2022-11-21T08:41:17.447Z,4.57
2022-11-21T08:43:46.091Z,4.64
2022-11-21T08:46:14.390Z,4.66
2022-11-21T08:48:43.999Z,4.68
2022-11-21T08:51:14.502Z,4.75
2022-11-21T08:53:42.953Z,4.79
2022-11-21T08:56:15.388Z,4.84
2022-11-21T08:58:45.780Z,4.91
2022-11-21T09:01:14.179Z,4.94
2022-11-21T09:03:43.885Z,4.91
2022-11-21T09:06:13.353Z,4.97
2022-11-21T09:08:45.351Z,4.96
2022-11-21T09:11:13.551Z,5.02
2022-11-21T09:13:41.782Z,5.05
2022-11-21T09:16:32.729Z,5.09
2022-11-21T09:19:03.514Z,5.15
2022-11-21T09:21:31.736Z,5.17
2022-11-21T09:23:59.944Z,5.18
2022-11-21T09:26:31.558Z,5.23
2022-11-21T09:28:59.850Z,5.26
2022-11-21T09:31:28.616Z,5.38
2022-11-21T09:34:02.391Z,5.40
2022-11-21T09:36:32.231Z,5.55
2022-11-21T09:39:00.428Z,5.65
2022-11-21T09:41:54.533Z,5.71
2022-11-21T09:44:59.321Z,5.92
2022-11-21T09:47:29.779Z,6.12
2022-11-21T09:50:02.873Z,6.17
2022-11-21T09:52:42.195Z,6.30
2022-11-21T09:55:27.851Z,6.45
2022-11-21T09:57:59.417Z,6.42
2022-11-21T10:00:29.485Z,6.43
2022-11-21T10:03:01.991Z,6.53
2022-11-21T10:05:37.227Z,6.66
2022-11-21T10:08:16.719Z,6.88
2022-11-21T10:10:58.181Z,6.80
2022-11-21T10:13:47.684Z,6.91
2022-11-21T10:16:22.231Z,7.12
2022-11-21T10:19:33.928Z,7.14
2022-11-21T10:22:23.094Z,7.13
2022-11-21T10:24:57.910Z,6.93
2022-11-21T10:27:33.954Z,6.85
2022-11-21T10:30:08.211Z,6.98
2022-11-21T10:32:42.221Z,7.03
2022-11-21T10:35:17.643Z,7.10
2022-11-21T10:37:52.948Z,7.24
2022-11-21T10:40:38.717Z,7.32
2022-11-21T10:43:37.438Z,7.34
2022-11-21T10:46:09.707Z,7.25
2022-11-21T10:48:38.002Z,7.15
2022-11-21T10:51:24.483Z,7.16
2022-11-21T10:54:23.430Z,7.22
2022-11-21T10:56:54.407Z,7.17
2022-11-21T10:59:30.730Z,7.23
2022-11-21T11:02:00.984Z,7.08
2022-11-21T11:04:41.598Z,7.18
2022-11-21T11:07:23.574Z,7.18
2022-11-21T11:09:53.565Z,7.33
2022-11-21T11:12:47.061Z,7.47
2022-11-21T11:15:21.720Z,7.55
2022-11-21T11:17:56.209Z,7.58
2022-11-21T11:20:34.664Z,7.62
2022-11-21T11:23:17.506Z,7.68
2022-11-21T11:25:52.927Z,7.65
2022-11-21T11:28:24.065Z,7.63
2022-11-21T11:30:53.930Z,7.73
2022-11-21T11:33:34.237Z,7.69
2022-11-21T11:36:17.399Z,7.77
2022-11-21T11:38:52.694Z,7.73
2022-11-21T11:42:00.837Z,7.76
2022-11-21T11:45:02.152Z,7.82
2022-11-21T11:47:35.442Z,7.78
2022-11-21T11:50:12.603Z,7.82
2022-11-21T11:52:53.349Z,7.75
2022-11-21T11:55:31.827Z,7.69
2022-11-21T11:58:06.202Z,7.77
2022-11-21T12:00:43.384Z,7.69
2022-11-21T12:03:19.888Z,7.73
2022-11-21T12:05:58.537Z,7.74
2022-11-21T12:08:42.911Z,7.65
2022-11-21T12:11:47.774Z,7.49
2022-11-21T12:14:54.333Z,7.52
2022-11-21T12:17:40.079Z,7.55
2022-11-21T12:20:17.321Z,7.49
2022-11-21T12:22:51.230Z,7.57
2022-11-21T12:25:28.471Z,7.56
2022-11-21T12:27:59.227Z,7.55
2022-11-21T12:31:00.163Z,7.55
2022-11-21T12:33:48.437Z,7.61
2022-11-21T12:36:27.431Z,7.70
2022-11-21T12:39:33.869Z,7.79
2022-11-21T12:42:44.746Z,7.72
2022-11-21T12:45:28.778Z,7.70
2022-11-21T12:48:37.885Z,7.69
2022-11-21T12:52:06.198Z,7.70
2022-11-21T12:55:26.292Z,7.71
2022-11-21T12:58:20.858Z,7.76
2022-11-21T13:01:21.109Z,7.87
2022-11-21T13:04:01.589Z,7.90
2022-11-21T13:06:37.344Z,7.91
2022-11-21T13:09:10.928Z,7.85
2022-11-21T13:12:02.634Z,7.91
2022-11-21T13:14:36.576Z,7.96
2022-11-21T13:17:28.150Z,7.96
2022-11-21T13:20:09.463Z,8.01
2022-11-21T13:23:01.076Z,8.03
2022-11-21T13:25:57.288Z,8.05
2022-11-21T13:28:39.988Z,8.05
2022-11-21T13:31:33.224Z,8.06
2022-11-21T13:34:16.172Z,8.04
2022-11-21T13:36:45.270Z,8.06
2022-11-21T13:39:39.856Z,8.07
2022-11-21T13:42:31.007Z,8.06
2022-11-21T13:45:00.117Z,8.03
2022-11-21T13:48:11.750Z,8.01
2022-11-21T13:51:09.961Z,8.02
2022-11-21T13:53:58.442Z,8.02
2022-11-21T13:56:47.155Z,8.03
2022-11-21T13:59:41.773Z,8.04
2022-11-21T14:02:43.271Z,8.01
2022-11-21T14:05:36.414Z,8.12
2022-11-21T14:08:24.358Z,8.20
2022-11-21T14:10:59.539Z,8.21
2022-11-21T14:13:43.296Z,8.20
2022-11-21T14:16:25.115Z,8.23
2022-11-21T14:18:56.948Z,8.29
2022-11-21T14:21:30.056Z,8.29
2022-11-21T14:24:04.416Z,8.31
2022-11-21T14:26:40.330Z,8.30
2022-11-21T14:29:24.941Z,8.27
2022-11-21T14:31:55.736Z,8.29
2022-11-21T14:34:29.026Z,8.28
2022-11-21T14:37:00.775Z,8.30
2022-11-21T14:39:40.762Z,8.26
2022-11-21T14:42:15.099Z,8.27
2022-11-21T14:44:45.044Z,8.27
2022-11-21T14:47:26.342Z,8.28
2022-11-21T14:50:07.494Z,8.27
2022-11-21T14:52:59.916Z,8.21
2022-11-21T14:55:36.983Z,8.17
2022-11-21T14:58:19.943Z,8.17
2022-11-21T15:01:12.920Z,8.16
2022-11-21T15:03:58.590Z,8.14
2022-11-21T15:06:27.291Z,8.15
2022-11-21T15:10:11.614Z,8.14
2022-11-21T15:11:55.819Z,8.19
2022-11-21T15:14:28.491Z,8.17
2022-11-21T15:17:04.654Z,8.14
2022-11-21T15:19:36.853Z,8.15
2022-11-21T15:22:08.028Z,8.16
2022-11-21T15:25:13.085Z,8.09
2022-11-21T15:27:50.735Z,8.14
2022-11-21T15:30:33.601Z,8.07
2022-11-21T15:33:17.441Z,8.09
2022-11-21T15:35:53.700Z,8.07
2022-11-21T15:38:39.866Z,8.05
2022-11-21T15:41:28.834Z,8.01
2022-11-21T15:44:22.514Z,7.98
2022-11-21T15:46:53.029Z,7.96
2022-11-21T15:49:32.940Z,8.01
2022-11-21T15:52:09.788Z,8.02
2022-11-21T15:54:38.552Z,8.01
2022-11-21T15:57:07.322Z,8.06
2022-11-21T15:59:36.634Z,8.02
2022-11-21T16:02:05.661Z,8.02
2022-11-21T16:04:35.955Z,8.02
2022-11-21T16:07:04.338Z,8.01
2022-11-21T16:09:33.368Z,7.98
2022-11-21T16:12:01.734Z,7.96
2022-11-21T16:14:29.984Z,7.89
2022-11-21T16:16:58.248Z,7.88
2022-11-21T16:19:26.765Z,7.87
2022-11-21T16:21:58.271Z,7.84
2022-11-21T16:24:26.533Z,7.79
2022-11-21T16:26:55.457Z,7.73
2022-11-21T16:29:23.657Z,7.71
2022-11-21T16:31:52.503Z,7.69
2022-11-21T16:34:20.872Z,7.64
2022-11-21T16:36:50.596Z,7.68
2022-11-21T16:39:20.456Z,7.64
2022-11-21T16:41:49.479Z,7.60
2022-11-21T16:44:18.203Z,7.57
2022-11-21T16:46:49.176Z,7.56
2022-11-21T16:49:17.411Z,7.55
2022-11-21T16:51:46.297Z,7.57
2022-11-21T16:54:14.567Z,7.54
2022-11-21T16:56:44.142Z,7.54
2022-11-21T16:59:12.981Z,7.49
2022-11-21T17:01:41.343Z,7.48
2022-11-21T17:04:15.654Z,7.44
2022-11-21T17:06:47.037Z,7.43
2022-11-21T17:09:16.386Z,7.43
2022-11-21T17:11:46.241Z,7.43
2022-11-21T17:14:16.884Z,7.42
2022-11-21T17:16:45.822Z,7.41
2022-11-21T17:19:16.229Z,7.38
2022-11-21T17:21:44.710Z,7.37
2022-11-21T17:24:13.724Z,7.34
2022-11-21T17:26:45.205Z,7.34
2022-11-21T17:29:13.472Z,7.35
2022-11-21T17:31:42.735Z,7.34
2022-11-21T17:34:11.731Z,7.32
2022-11-21T17:36:40.074Z,7.31
2022-11-21T17:39:08.617Z,7.31
2022-11-21T17:41:38.065Z,7.27
2022-11-21T17:44:08.203Z,7.26
2022-11-21T17:46:36.405Z,7.29
2022-11-21T17:49:05.632Z,7.27
2022-11-21T17:51:34.962Z,7.26
2022-11-21T17:54:05.813Z,7.25
2022-11-21T17:56:42.368Z,7.25
2022-11-21T17:59:14.993Z,7.26
2022-11-21T18:01:43.454Z,7.24
2022-11-21T18:04:15.273Z,7.26
2022-11-21T18:06:43.900Z,7.24
2022-11-21T18:09:12.953Z,7.27
2022-11-21T18:11:41.747Z,7.24
2022-11-21T18:14:10.924Z,7.26
2022-11-21T18:16:44.691Z,7.24
2022-11-21T18:19:16.079Z,7.23
2022-11-21T18:21:44.273Z,7.23
2022-11-21T18:24:12.600Z,7.20
2022-11-21T18:26:41.226Z,7.19
2022-11-21T18:29:35.141Z,7.19
2022-11-21T18:32:01.070Z,7.19
2022-11-21T18:34:29.351Z,7.16
2022-11-21T18:36:57.577Z,7.16
2022-11-21T18:39:27.008Z,7.12
2022-11-21T18:41:55.575Z,7.13
2022-11-21T18:44:23.814Z,7.12
2022-11-21T18:46:51.997Z,7.11
2022-11-21T18:49:27.933Z,7.09
2022-11-21T18:52:00.116Z,7.09
2022-11-21T18:54:28.397Z,7.07
2022-11-21T18:56:57.269Z,7.07
2022-11-21T18:59:25.516Z,7.05
2022-11-21T19:01:54.255Z,7.05
2022-11-21T19:04:23.527Z,7.02
2022-11-21T19:06:53.317Z,7.03
2022-11-21T19:09:31.029Z,7.03
2022-11-21T19:12:19.303Z,7.03
2022-11-21T19:14:57.193Z,7.02
2022-11-21T19:17:34.112Z,6.99
2022-11-21T19:20:11.483Z,7.01
2022-11-21T19:25:30.092Z,7.02
2022-11-21T19:28:03.876Z,6.99
2022-11-21T19:30:40.601Z,6.99
2022-11-21T19:33:31.958Z,6.97
2022-11-21T19:36:02.798Z,6.98
2022-11-21T19:38:52.237Z,6.99
2022-11-21T19:41:30.785Z,7.00
2022-11-21T19:44:04.977Z,6.99
2022-11-21T19:46:53.337Z,6.99
2022-11-21T19:49:24.928Z,7.01
2022-11-21T19:51:58.111Z,6.99
2022-11-21T19:54:35.845Z,6.98
2022-11-21T19:57:13.690Z,6.97
2022-11-21T19:59:46.924Z,6.99
2022-11-21T20:02:21.278Z,7.00
2022-11-21T20:04:57.281Z,7.00
2022-11-21T20:07:29.070Z,7.02
2022-11-21T20:09:58.791Z,6.99
2022-11-21T20:12:29.602Z,7.01
2022-11-21T20:14:57.835Z,7.00
2022-11-21T20:17:29.218Z,7.00
2022-11-21T20:19:58.766Z,6.99
2022-11-21T20:22:26.996Z,7.00
2022-11-21T20:24:55.323Z,7.00
2022-11-21T20:27:25.017Z,7.02
2022-11-21T20:29:53.319Z,6.99
2022-11-21T20:32:21.536Z,7.00
2022-11-21T20:34:49.819Z,7.00
2022-11-21T20:37:18.036Z,7.04
2022-11-21T20:39:46.305Z,6.99
2022-11-21T20:42:14.652Z,7.02
2022-11-21T20:45:41.645Z,7.02
2022-11-21T20:47:37.979Z,6.99
2022-11-21T20:50:08.713Z,6.98
2022-11-21T20:55:25.557Z,7.02
2022-11-21T20:57:54.474Z,7.02
2022-11-21T21:00:24.285Z,7.02
2022-11-21T21:02:52.427Z,7.02
2022-11-21T21:05:20.618Z,7.01
2022-11-21T21:07:48.869Z,6.99
2022-11-21T21:10:17.785Z,7.00
2022-11-21T21:12:48.760Z,7.01
2022-11-21T21:15:17.184Z,7.01
2022-11-21T21:17:47.471Z,7.00
2022-11-21T21:20:15.907Z,6.97
2022-11-21T21:22:45.823Z,6.96
2022-11-21T21:25:14.073Z,6.97
2022-11-21T21:27:42.267Z,7.00
2022-11-21T21:30:11.605Z,7.02
2022-11-21T21:32:39.831Z,6.98
2022-11-21T21:35:13.308Z,6.99
2022-11-21T21:37:42.620Z,6.97
2022-11-21T21:40:11.946Z,6.96
2022-11-21T21:42:40.184Z,6.93
2022-11-21T21:45:09.568Z,6.93
2022-11-21T21:47:38.186Z,6.91
2022-11-21T21:50:15.517Z,6.91
2022-11-21T21:52:44.137Z,6.93
2022-11-21T21:55:12.330Z,6.91
2022-11-21T21:57:46.084Z,6.89
2022-11-21T22:00:16.600Z,6.90
2022-11-21T22:02:44.860Z,6.87
2022-11-21T22:05:14.891Z,6.96
2022-11-21T22:07:43.227Z,6.96
2022-11-21T22:10:11.577Z,6.90
2022-11-21T22:12:43.818Z,6.89
2022-11-21T22:15:12.501Z,6.88
2022-11-21T22:17:40.849Z,6.85
2022-11-21T22:20:10.016Z,6.76
2022-11-21T22:22:39.812Z,6.72
2022-11-21T22:25:09.070Z,6.74
2022-11-21T22:27:37.378Z,6.76
2022-11-21T22:30:06.727Z,6.66
2022-11-21T22:32:35.041Z,6.65
2022-11-21T22:35:03.437Z,6.57
2022-11-21T22:37:32.586Z,6.53
2022-11-21T22:40:02.129Z,6.56
2022-11-21T22:42:30.945Z,6.49
2022-11-21T22:44:59.244Z,6.46
2022-11-21T22:47:27.421Z,6.46
2022-11-21T22:49:56.110Z,6.49
2022-11-21T22:52:24.866Z,6.45
2022-11-21T22:54:54.434Z,6.40
2022-11-21T22:57:24.547Z,6.39
2022-11-21T22:59:53.703Z,6.45
2022-11-21T23:02:23.129Z,6.41
2022-11-21T23:04:51.764Z,6.38
2022-11-21T23:07:20.210Z,6.37
2022-11-21T23:09:49.376Z,6.34
2022-11-21T23:12:17.780Z,6.31
2022-11-21T23:14:47.362Z,6.31
2022-11-21T23:17:16.262Z,6.33
2022-11-21T23:19:44.588Z,6.22
2022-11-21T23:22:13.976Z,6.15
2022-11-21T23:24:42.447Z,6.12
2022-11-21T23:27:10.674Z,6.15
2022-11-21T23:29:38.987Z,6.16
2022-11-21T23:32:08.753Z,6.21
2022-11-21T23:34:37.005Z,6.19
2022-11-21T23:37:07.770Z,6.20
2022-11-21T23:39:36.069Z,6.16
2022-11-21T23:42:04.498Z,6.14
2022-11-21T23:44:33.360Z,6.13
2022-11-21T23:47:01.587Z,6.06
2022-11-21T23:49:31.657Z,6.06
2022-11-21T23:52:00.027Z,5.99
2022-11-21T23:54:28.396Z,6.08
2022-11-21T23:56:56.668Z,6.09
2022-11-21T23:59:25.013Z,6.06
